sensor_id;sensor_type;location;lat;lon;timestamp;pressure;altitude;pressure_sealevel;temperature;humidity
35435;BME280;21556;55.782;37.528;2023-06-10T00:02:09;100146.19;;;16.51;100.00
35435;BME280;21556;55.782;37.528;2023-06-10T00:04:39;100138.25;;;16.32;100.00
35435;BME280;21556;55.782;37.528;2023-06-10T00:07:08;100134.72;;;16.01;100.00
35435;BME280;21556;55.782;37.528;2023-06-10T00:09:38;100135.59;;;16.35;100.00
35435;BME280;21556;55.782;37.528;2023-06-10T00:12:05;100139.13;;;16.18;100.00
35435;BME280;21556;55.782;37.528;2023-06-10T00:14:43;100136.47;;;16.22;100.00
35435;BME280;21556;55.782;37.528;2023-06-10T00:17:09;100142.66;;;16.50;100.00
35435;BME280;21556;55.782;37.528;2023-06-10T00:19:36;100140.03;;;16.43;100.00
35435;BME280;21556;55.782;37.528;2023-06-10T00:22:07;100144.41;;;15.95;100.00
35435;BME280;21556;55.782;37.528;2023-06-10T00:24:35;100145.28;;;16.07;100.00
35435;BME280;21556;55.782;37.528;2023-06-10T00:27:04;100147.03;;;15.87;100.00
35435;BME280;21556;55.782;37.528;2023-06-10T00:29:34;100149.66;;;15.76;100.00
35435;BME280;21556;55.782;37.528;2023-06-10T00:32:01;100154.03;;;15.74;100.00
35435;BME280;21556;55.782;37.528;2023-06-10T00:34:27;100155.84;;;15.87;100.00
35435;BME280;21556;55.782;37.528;2023-06-10T00:36:55;100154.97;;;15.92;100.00
35435;BME280;21556;55.782;37.528;2023-06-10T00:39:23;100162.84;;;15.70;100.00
35435;BME280;21556;55.782;37.528;2023-06-10T00:41:52;100168.84;;;15.29;100.00
35435;BME280;21556;55.782;37.528;2023-06-10T00:44:23;100179.44;;;15.37;100.00
35435;BME280;21556;55.782;37.528;2023-06-10T00:46:50;100184.75;;;15.43;100.00
35435;BME280;21556;55.782;37.528;2023-06-10T00:49:17;100188.28;;;15.47;100.00
35435;BME280;21556;55.782;37.528;2023-06-10T00:51:53;100175.22;;;15.74;100.00
35435;BME280;21556;55.782;37.528;2023-06-10T00:54:20;100181.41;;;15.84;100.00
35435;BME280;21556;55.782;37.528;2023-06-10T00:56:49;100185.63;;;15.42;100.00
35435;BME280;21556;55.782;37.528;2023-06-10T00:59:18;100192.88;;;15.80;100.00
35435;BME280;21556;55.782;37.528;2023-06-10T01:01:45;100197.31;;;16.04;100.00
35435;BME280;21556;55.782;37.528;2023-06-10T01:04:13;100193.84;;;16.25;100.00
35435;BME280;21556;55.782;37.528;2023-06-10T01:09:51;100208.63;;;15.58;100.00
35435;BME280;21556;55.782;37.528;2023-06-10T01:12:39;100199.81;;;15.58;100.00
35435;BME280;21556;55.782;37.528;2023-06-10T01:15:23;100212.81;;;15.20;100.00
35435;BME280;21556;55.782;37.528;2023-06-10T01:18:00;100212.91;;;15.29;100.00
35435;BME280;21556;55.782;37.528;2023-06-10T01:20:33;100218.97;;;15.15;100.00
35435;BME280;21556;55.782;37.528;2023-06-10T01:23:03;100214.91;;;15.80;100.00
35435;BME280;21556;55.782;37.528;2023-06-10T01:25:39;100215.63;;;15.53;100.00
35435;BME280;21556;55.782;37.528;2023-06-10T01:28:25;100222.69;;;15.53;100.00
35435;BME280;21556;55.782;37.528;2023-06-10T01:33:28;100220.91;;;15.47;100.00
35435;BME280;21556;55.782;37.528;2023-06-10T01:36:02;100227.13;;;15.58;100.00
35435;BME280;21556;55.782;37.528;2023-06-10T01:38:35;100226.94;;;15.19;100.00
35435;BME280;21556;55.782;37.528;2023-06-10T01:41:03;100236.50;;;15.06;100.00
35435;BME280;21556;55.782;37.528;2023-06-10T01:43:33;100232.06;;;14.99;100.00
35435;BME280;21556;55.782;37.528;2023-06-10T01:46:02;100234.81;;;15.15;100.00
35435;BME280;21556;55.782;37.528;2023-06-10T01:48:32;100241.84;;;15.13;100.00
35435;BME280;21556;55.782;37.528;2023-06-10T01:51:01;100233.13;;;15.24;100.00
35435;BME280;21556;55.782;37.528;2023-06-10T01:53:32;100245.09;;;14.77;100.00
35435;BME280;21556;55.782;37.528;2023-06-10T01:56:00;100249.34;;;14.58;100.00
35435;BME280;21556;55.782;37.528;2023-06-10T01:58:28;100248.47;;;14.58;100.00
35435;BME280;21556;55.782;37.528;2023-06-10T02:00:56;100249.38;;;14.63;100.00
35435;BME280;21556;55.782;37.528;2023-06-10T02:03:24;100258.13;;;14.54;100.00
35435;BME280;21556;55.782;37.528;2023-06-10T02:05:51;100256.56;;;14.81;100.00
35435;BME280;21556;55.782;37.528;2023-06-10T02:08:17;100249.50;;;14.77;100.00
35435;BME280;21556;55.782;37.528;2023-06-10T02:10:44;100251.50;;;15.10;100.00
35435;BME280;21556;55.782;37.528;2023-06-10T02:13:14;100262.69;;;14.71;100.00
35435;BME280;21556;55.782;37.528;2023-06-10T02:15:40;100268.19;;;14.97;100.00
35435;BME280;21556;55.782;37.528;2023-06-10T02:18:10;100264.31;;;14.56;100.00
35435;BME280;21556;55.782;37.528;2023-06-10T02:20:45;100269.81;;;14.82;100.00
35435;BME280;21556;55.782;37.528;2023-06-10T02:23:12;100276.66;;;14.60;100.00
35435;BME280;21556;55.782;37.528;2023-06-10T02:25:39;100275.81;;;14.66;100.00
35435;BME280;21556;55.782;37.528;2023-06-10T02:28:06;100272.31;;;14.64;100.00
35435;BME280;21556;55.782;37.528;2023-06-10T02:30:34;100272.16;;;14.50;100.00
35435;BME280;21556;55.782;37.528;2023-06-10T02:33:01;100265.31;;;14.74;100.00
35435;BME280;21556;55.782;37.528;2023-06-10T02:35:29;100277.13;;;14.23;100.00
35435;BME280;21556;55.782;37.528;2023-06-10T02:37:55;100270.34;;;14.48;100.00
35435;BME280;21556;55.782;37.528;2023-06-10T02:40:22;100260.53;;;14.36;100.00
35435;BME280;21556;55.782;37.528;2023-06-10T02:42:52;100276.28;;;14.25;100.00
35435;BME280;21556;55.782;37.528;2023-06-10T02:45:18;100284.34;;;14.40;100.00
35435;BME280;21556;55.782;37.528;2023-06-10T02:47:47;100287.84;;;14.38;100.00
35435;BME280;21556;55.782;37.528;2023-06-10T02:50:14;100293.69;;;14.12;100.00
35435;BME280;21556;55.782;37.528;2023-06-10T02:52:56;100293.81;;;14.23;100.00
35435;BME280;21556;55.782;37.528;2023-06-10T02:55:23;100293.78;;;14.18;100.00
35435;BME280;21556;55.782;37.528;2023-06-10T02:57:56;100293.75;;;14.14;100.00
35435;BME280;21556;55.782;37.528;2023-06-10T03:00:24;100286.09;;;14.40;100.00
35435;BME280;21556;55.782;37.528;2023-06-10T03:02:52;100283.72;;;14.60;100.00
35435;BME280;21556;55.782;37.528;2023-06-10T03:05:32;100295.34;;;14.83;100.00
35435;BME280;21556;55.782;37.528;2023-06-10T03:08:04;100290.69;;;14.55;100.00
35435;BME280;21556;55.782;37.528;2023-06-10T03:10:33;100289.09;;;14.71;100.00
35435;BME280;21556;55.782;37.528;2023-06-10T03:13:01;100293.63;;;14.85;100.00
35435;BME280;21556;55.782;37.528;2023-06-10T03:15:28;100292.47;;;14.59;100.00
35435;BME280;21556;55.782;37.528;2023-06-10T03:18:01;100292.22;;;14.37;100.00
35435;BME280;21556;55.782;37.528;2023-06-10T03:20:32;100303.66;;;14.35;100.00
35435;BME280;21556;55.782;37.528;2023-06-10T03:23:05;100298.81;;;14.75;100.00
35435;BME280;21556;55.782;37.528;2023-06-10T03:25:38;100295.31;;;14.80;100.00
35435;BME280;21556;55.782;37.528;2023-06-10T03:28:05;100297.81;;;14.66;100.00
35435;BME280;21556;55.782;37.528;2023-06-10T03:30:34;100297.81;;;14.63;100.00
35435;BME280;21556;55.782;37.528;2023-06-10T03:33:01;100301.56;;;14.91;100.00
35435;BME280;21556;55.782;37.528;2023-06-10T03:35:32;100301.25;;;14.53;100.00
35435;BME280;21556;55.782;37.528;2023-06-10T03:38:06;100310.66;;;14.33;100.00
35435;BME280;21556;55.782;37.528;2023-06-10T03:40:33;100311.66;;;14.44;100.00
35435;BME280;21556;55.782;37.528;2023-06-10T03:43:03;100305.16;;;14.98;100.00
35435;BME280;21556;55.782;37.528;2023-06-10T03:45:33;100309.34;;;14.72;100.00
35435;BME280;21556;55.782;37.528;2023-06-10T03:48:03;100313.03;;;14.90;100.00
35435;BME280;21556;55.782;37.528;2023-06-10T03:50:42;100315.81;;;15.07;100.00
35435;BME280;21556;55.782;37.528;2023-06-10T03:53:09;100311.03;;;14.63;100.00
35435;BME280;21556;55.782;37.528;2023-06-10T03:55:44;100313.88;;;14.86;100.00
35435;BME280;21556;55.782;37.528;2023-06-10T03:58:13;100311.25;;;14.91;100.00
35435;BME280;21556;55.782;37.528;2023-06-10T04:00:42;100308.63;;;14.91;100.00
35435;BME280;21556;55.782;37.528;2023-06-10T04:03:12;100312.03;;;14.81;100.00
35435;BME280;21556;55.782;37.528;2023-06-10T04:05:45;100314.75;;;14.87;100.00
35435;BME280;21556;55.782;37.528;2023-06-10T04:08:21;100319.09;;;14.79;100.00
35435;BME280;21556;55.782;37.528;2023-06-10T04:10:49;100319.88;;;14.67;100.00
35435;BME280;21556;55.782;37.528;2023-06-10T04:13:16;100318.94;;;14.63;100.00
35435;BME280;21556;55.782;37.528;2023-06-10T04:15:52;100322.63;;;14.79;100.00
35435;BME280;21556;55.782;37.528;2023-06-10T04:18:28;100324.41;;;14.85;100.00
35435;BME280;21556;55.782;37.528;2023-06-10T04:21:01;100326.13;;;14.78;100.00
35435;BME280;21556;55.782;37.528;2023-06-10T04:23:28;100316.41;;;14.76;100.00
35435;BME280;21556;55.782;37.528;2023-06-10T04:25:55;100328.06;;;14.96;100.00
35435;BME280;21556;55.782;37.528;2023-06-10T04:28:30;100326.50;;;15.24;100.00
35435;BME280;21556;55.782;37.528;2023-06-10T04:30:58;100328.03;;;14.95;100.00
35435;BME280;21556;55.782;37.528;2023-06-10T04:33:41;100316.19;;;15.64;100.00
35435;BME280;21556;55.782;37.528;2023-06-10T04:36:11;100324.81;;;15.34;100.00
35435;BME280;21556;55.782;37.528;2023-06-10T04:38:41;100322.81;;;15.02;100.00
35435;BME280;21556;55.782;37.528;2023-06-10T04:41:08;100332.50;;;15.00;100.00
35435;BME280;21556;55.782;37.528;2023-06-10T04:43:38;100329.38;;;15.61;100.00
35435;BME280;21556;55.782;37.528;2023-06-10T04:46:24;100334.47;;;15.27;100.00
35435;BME280;21556;55.782;37.528;2023-06-10T04:49:13;100333.88;;;15.68;100.00
35435;BME280;21556;55.782;37.528;2023-06-10T04:51:42;100340.97;;;15.69;100.00
35435;BME280;21556;55.782;37.528;2023-06-10T04:54:09;100336.56;;;15.74;100.00
35435;BME280;21556;55.782;37.528;2023-06-10T04:56:35;100338.16;;;15.52;100.00
35435;BME280;21556;55.782;37.528;2023-06-10T04:59:02;100340.97;;;15.69;100.00
35435;BME280;21556;55.782;37.528;2023-06-10T05:01:31;100347.00;;;15.56;100.00
35435;BME280;21556;55.782;37.528;2023-06-10T05:04:03;100343.25;;;15.25;100.00
35435;BME280;21556;55.782;37.528;2023-06-10T05:06:32;100348.06;;;15.82;100.00
35435;BME280;21556;55.782;37.528;2023-06-10T05:09:09;100342.84;;;15.96;100.00
35435;BME280;21556;55.782;37.528;2023-06-10T05:11:41;100344.59;;;15.91;100.00
35435;BME280;21556;55.782;37.528;2023-06-10T05:16:58;100353.06;;;15.36;100.00
35435;BME280;21556;55.782;37.528;2023-06-10T05:19:36;100355.56;;;15.24;100.00
35435;BME280;21556;55.782;37.528;2023-06-10T05:22:03;100347.06;;;15.63;100.00
35435;BME280;21556;55.782;37.528;2023-06-10T05:24:31;100348.88;;;15.68;100.00
35435;BME280;21556;55.782;37.528;2023-06-10T05:27:05;100362.25;;;15.94;100.00
35435;BME280;21556;55.782;37.528;2023-06-10T05:29:34;100343.75;;;16.04;100.00
35435;BME280;21556;55.782;37.528;2023-06-10T05:32:09;100350.81;;;15.95;100.00
35435;BME280;21556;55.782;37.528;2023-06-10T05:34:42;100357.06;;;16.13;100.00
35435;BME280;21556;55.782;37.528;2023-06-10T05:37:10;100352.69;;;16.29;100.00
35435;BME280;21556;55.782;37.528;2023-06-10T05:39:38;100352.72;;;16.32;100.00
35435;BME280;21556;55.782;37.528;2023-06-10T05:42:11;100364.13;;;16.22;100.00
35435;BME280;21556;55.782;37.528;2023-06-10T05:44:45;100365.97;;;16.31;100.00
35435;BME280;21556;55.782;37.528;2023-06-10T05:47:13;100365.13;;;16.47;100.00
35435;BME280;21556;55.782;37.528;2023-06-10T05:49:57;100365.13;;;16.50;100.00
35435;BME280;21556;55.782;37.528;2023-06-10T05:52:24;100363.38;;;16.55;100.00
35435;BME280;21556;55.782;37.528;2023-06-10T05:54:52;100362.53;;;16.64;100.00
35435;BME280;21556;55.782;37.528;2023-06-10T05:57:24;100373.06;;;16.43;100.00
35435;BME280;21556;55.782;37.528;2023-06-10T05:59:51;100365.25;;;16.78;100.00
35435;BME280;21556;55.782;37.528;2023-06-10T06:02:21;100365.22;;;16.76;100.00
35435;BME280;21556;55.782;37.528;2023-06-10T06:04:54;100361.72;;;16.99;100.00
35435;BME280;21556;55.782;37.528;2023-06-10T06:07:21;100359.97;;;17.27;100.00
35435;BME280;21556;55.782;37.528;2023-06-10T06:09:51;100365.22;;;17.73;100.00
35435;BME280;21556;55.782;37.528;2023-06-10T06:12:19;100363.34;;;18.21;99.26
35435;BME280;21556;55.782;37.528;2023-06-10T06:14:45;100366.06;;;18.09;100.00
35435;BME280;21556;55.782;37.528;2023-06-10T06:17:13;100370.53;;;17.85;100.00
35435;BME280;21556;55.782;37.528;2023-06-10T06:19:39;100367.00;;;17.57;100.00
35435;BME280;21556;55.782;37.528;2023-06-10T06:22:08;100366.16;;;17.23;100.00
35435;BME280;21556;55.782;37.528;2023-06-10T06:24:42;100379.41;;;16.97;100.00
35435;BME280;21556;55.782;37.528;2023-06-10T06:27:08;100383.84;;;17.07;100.00
35435;BME280;21556;55.782;37.528;2023-06-10T06:29:36;100375.84;;;17.62;100.00
35435;BME280;21556;55.782;37.528;2023-06-10T06:32:13;100367.72;;;18.31;96.49
35435;BME280;21556;55.782;37.528;2023-06-10T06:34:46;100372.91;;;18.54;89.57
35435;BME280;21556;55.782;37.528;2023-06-10T06:37:12;100379.19;;;18.41;92.66
35435;BME280;21556;55.782;37.528;2023-06-10T06:39:55;100371.94;;;18.81;89.66
35435;BME280;21556;55.782;37.528;2023-06-10T06:43:15;100378.06;;;18.92;86.77
35435;BME280;21556;55.782;37.528;2023-06-10T06:46:03;100380.84;;;18.62;90.17
35435;BME280;21556;55.782;37.528;2023-06-10T06:48:37;100384.00;;;19.28;77.07
35435;BME280;21556;55.782;37.528;2023-06-10T06:51:07;100379.88;;;18.83;80.57
35435;BME280;21556;55.782;37.528;2023-06-10T06:53:34;100384.94;;;19.21;80.31
35435;BME280;21556;55.782;37.528;2023-06-10T06:56:02;100382.56;;;18.81;79.49
35435;BME280;21556;55.782;37.528;2023-06-10T06:58:29;100376.41;;;18.74;80.06
35435;BME280;21556;55.782;37.528;2023-06-10T07:00:56;100386.84;;;19.04;77.45
35435;BME280;21556;55.782;37.528;2023-06-10T07:03:23;100395.06;;;18.55;79.54
35435;BME280;21556;55.782;37.528;2023-06-10T07:05:50;100389.75;;;18.53;78.38
35435;BME280;21556;55.782;37.528;2023-06-10T07:08:17;100395.16;;;18.32;86.81
35435;BME280;21556;55.782;37.528;2023-06-10T07:10:44;100395.28;;;17.95;84.40
35435;BME280;21556;55.782;37.528;2023-06-10T07:13:11;100411.16;;;18.21;82.64
35435;BME280;21556;55.782;37.528;2023-06-10T07:15:39;100395.19;;;18.30;84.71
35435;BME280;21556;55.782;37.528;2023-06-10T07:18:06;100398.84;;;17.91;85.22
35435;BME280;21556;55.782;37.528;2023-06-10T07:20:34;100405.06;;;17.47;85.98
35435;BME280;21556;55.782;37.528;2023-06-10T07:23:01;100406.78;;;17.74;86.17
35435;BME280;21556;55.782;37.528;2023-06-10T07:25:55;100404.16;;;17.59;85.37
35435;BME280;21556;55.782;37.528;2023-06-10T07:28:21;100410.34;;;17.65;85.37
35435;BME280;21556;55.782;37.528;2023-06-10T07:30:54;100409.47;;;17.45;90.61
35435;BME280;21556;55.782;37.528;2023-06-10T07:33:20;100409.47;;;17.49;90.27
35435;BME280;21556;55.782;37.528;2023-06-10T07:35:46;100411.25;;;17.52;86.13
35435;BME280;21556;55.782;37.528;2023-06-10T07:38:14;100420.97;;;17.41;87.29
35435;BME280;21556;55.782;37.528;2023-06-10T07:40:46;100407.09;;;19.21;70.62
35435;BME280;21556;55.782;37.528;2023-06-10T07:43:13;100404.19;;;20.37;59.30
35435;BME280;21556;55.782;37.528;2023-06-10T07:45:40;100413.56;;;20.72;55.89
35435;BME280;21556;55.782;37.528;2023-06-10T07:48:06;100411.50;;;20.23;52.79
35435;BME280;21556;55.782;37.528;2023-06-10T07:50:33;100407.50;;;19.80;52.55
35435;BME280;21556;55.782;37.528;2023-06-10T07:53:01;100411.31;;;20.36;51.92
35435;BME280;21556;55.782;37.528;2023-06-10T07:55:28;100410.28;;;21.14;47.99
35435;BME280;21556;55.782;37.528;2023-06-10T07:57:57;100409.94;;;21.37;45.29
35435;BME280;21556;55.782;37.528;2023-06-10T08:00:31;100411.81;;;22.73;42.57
35435;BME280;21556;55.782;37.528;2023-06-10T08:02:58;100408.56;;;22.14;42.68
35435;BME280;21556;55.782;37.528;2023-06-10T08:05:25;100407.69;;;22.15;43.26
35435;BME280;21556;55.782;37.528;2023-06-10T08:08:01;100412.94;;;21.14;45.65
35435;BME280;21556;55.782;37.528;2023-06-10T08:10:37;100405.16;;;22.91;38.97
35435;BME280;21556;55.782;37.528;2023-06-10T08:13:04;100402.81;;;22.77;39.05
35435;BME280;21556;55.782;37.528;2023-06-10T08:15:30;100399.00;;;23.26;36.57
35435;BME280;21556;55.782;37.528;2023-06-10T08:18:25;100391.28;;;24.17;32.58
35435;BME280;21556;55.782;37.528;2023-06-10T08:20:52;100394.91;;;24.47;31.83
35435;BME280;21556;55.782;37.528;2023-06-10T08:23:18;100396.53;;;23.89;31.63
35435;BME280;21556;55.782;37.528;2023-06-10T08:25:53;100396.38;;;24.87;31.05
35435;BME280;21556;55.782;37.528;2023-06-10T08:28:21;100388.13;;;24.65;29.12
35435;BME280;21556;55.782;37.528;2023-06-10T08:31:06;100397.81;;;24.07;29.23
35435;BME280;21556;55.782;37.528;2023-06-10T08:33:34;100393.91;;;25.10;28.00
35435;BME280;21556;55.782;37.528;2023-06-10T08:36:11;100395.84;;;24.76;29.42
35435;BME280;21556;55.782;37.528;2023-06-10T08:38:39;100404.06;;;25.27;27.94
35435;BME280;21556;55.782;37.528;2023-06-10T08:41:10;100392.31;;;25.84;25.59
35435;BME280;21556;55.782;37.528;2023-06-10T08:44:17;100381.75;;;26.28;24.37
35435;BME280;21556;55.782;37.528;2023-06-10T08:47:01;100394.16;;;25.56;25.36
35435;BME280;21556;55.782;37.528;2023-06-10T08:49:44;100403.28;;;26.03;26.19
35435;BME280;21556;55.782;37.528;2023-06-10T08:52:36;100402.34;;;25.79;26.08
35435;BME280;21556;55.782;37.528;2023-06-10T08:55:26;100394.78;;;27.31;25.62
35435;BME280;21556;55.782;37.528;2023-06-10T08:58:17;100410.31;;;25.82;27.04
35435;BME280;21556;55.782;37.528;2023-06-10T09:00:50;100403.72;;;27.10;26.64
35435;BME280;21556;55.782;37.528;2023-06-10T09:03:43;100413.50;;;26.42;26.86
35435;BME280;21556;55.782;37.528;2023-06-10T09:06:34;100414.16;;;25.47;28.59
35435;BME280;21556;55.782;37.528;2023-06-10T09:09:07;100415.00;;;26.51;27.05
35435;BME280;21556;55.782;37.528;2023-06-10T09:11:37;100412.72;;;25.90;26.65
35435;BME280;21556;55.782;37.528;2023-06-10T09:14:07;100422.31;;;24.25;29.61
35435;BME280;21556;55.782;37.528;2023-06-10T09:16:35;100439.03;;;22.91;28.42
35435;BME280;21556;55.782;37.528;2023-06-10T09:57:49;100440.53;;;21.12;33.08
35435;BME280;21556;55.782;37.528;2023-06-10T10:00:17;100461.91;;;20.41;33.69
35435;BME280;21556;55.782;37.528;2023-06-10T10:02:50;100462.34;;;20.01;35.73
35435;BME280;21556;55.782;37.528;2023-06-10T10:05:20;100464.41;;;20.55;34.91
35435;BME280;21556;55.782;37.528;2023-06-10T10:07:51;100461.47;;;20.76;34.86
35435;BME280;21556;55.782;37.528;2023-06-10T10:10:42;100465.53;;;20.34;35.33
35435;BME280;21556;55.782;37.528;2023-06-10T10:13:14;100471.00;;;20.18;36.86
35435;BME280;21556;55.782;37.528;2023-06-10T10:15:44;100475.06;;;20.56;36.02
35435;BME280;21556;55.782;37.528;2023-06-10T10:18:14;100466.22;;;21.19;35.36
35435;BME280;21556;55.782;37.528;2023-06-10T10:20:47;100454.81;;;22.18;32.06
35435;BME280;21556;55.782;37.528;2023-06-10T10:23:21;100439.84;;;23.35;30.02
35435;BME280;21556;55.782;37.528;2023-06-10T10:25:53;100442.50;;;22.97;30.23
35435;BME280;21556;55.782;37.528;2023-06-10T10:28:21;100441.78;;;22.89;30.57
35435;BME280;21556;55.782;37.528;2023-06-10T10:30:53;100442.50;;;22.07;31.84
35435;BME280;21556;55.782;37.528;2023-06-10T10:33:36;100454.22;;;22.00;31.44
35435;BME280;21556;55.782;37.528;2023-06-10T10:36:07;100456.97;;;21.46;32.99
35435;BME280;21556;55.782;37.528;2023-06-10T10:38:38;100465.50;;;21.08;33.78
35435;BME280;21556;55.782;37.528;2023-06-10T10:41:05;100466.03;;;21.31;34.50
35435;BME280;21556;55.782;37.528;2023-06-10T10:43:32;100458.22;;;21.21;35.15
35435;BME280;21556;55.782;37.528;2023-06-10T10:46:08;100466.09;;;20.62;35.59
35435;BME280;21556;55.782;37.528;2023-06-10T10:48:38;100463.94;;;20.93;35.54
35435;BME280;21556;55.782;37.528;2023-06-10T10:51:11;100472.44;;;21.21;35.20
35435;BME280;21556;55.782;37.528;2023-06-10T10:53:38;100461.91;;;21.69;32.40
35435;BME280;21556;55.782;37.528;2023-06-10T10:56:14;100455.84;;;22.57;30.17
35435;BME280;21556;55.782;37.528;2023-06-10T10:58:41;100452.13;;;22.19;29.53
35435;BME280;21556;55.782;37.528;2023-06-10T11:01:18;100441.69;;;22.94;28.34
35435;BME280;21556;55.782;37.528;2023-06-10T11:03:50;100438.41;;;23.21;28.71
35435;BME280;21556;55.782;37.528;2023-06-10T11:06:18;100422.41;;;23.18;29.16
35435;BME280;21556;55.782;37.528;2023-06-10T11:08:46;100438.88;;;23.39;28.63
35435;BME280;21556;55.782;37.528;2023-06-10T11:11:26;100440.22;;;22.79;29.28
35435;BME280;21556;55.782;37.528;2023-06-10T11:13:59;100432.06;;;22.83;30.11
35435;BME280;21556;55.782;37.528;2023-06-10T11:16:42;100414.38;;;23.18;28.22
35435;BME280;21556;55.782;37.528;2023-06-10T11:19:10;100432.00;;;22.87;28.36
35435;BME280;21556;55.782;37.528;2023-06-10T11:22:08;100435.81;;;22.33;28.37
35435;BME280;21556;55.782;37.528;2023-06-10T11:24:37;100437.59;;;22.34;28.17
35435;BME280;21556;55.782;37.528;2023-06-10T11:27:17;100445.53;;;21.89;29.34
35435;BME280;21556;55.782;37.528;2023-06-10T11:32:34;100444.97;;;21.13;30.52
35435;BME280;21556;55.782;37.528;2023-06-10T11:35:08;100436.13;;;21.09;31.48
35435;BME280;21556;55.782;37.528;2023-06-10T11:37:36;100446.13;;;21.55;30.51
35435;BME280;21556;55.782;37.528;2023-06-10T11:42:53;100449.63;;;21.59;30.82
35435;BME280;21556;55.782;37.528;2023-06-10T11:45:19;100450.25;;;21.18;32.01
35435;BME280;21556;55.782;37.528;2023-06-10T11:48:00;100463.19;;;20.80;32.63
35435;BME280;21556;55.782;37.528;2023-06-10T11:50:33;100460.38;;;21.54;31.98
35435;BME280;21556;55.782;37.528;2023-06-10T11:52:59;100464.78;;;21.57;30.84
35435;BME280;21556;55.782;37.528;2023-06-10T11:58:19;100456.88;;;20.89;31.23
35435;BME280;21556;55.782;37.528;2023-06-10T12:00:55;100450.22;;;21.21;30.64
35435;BME280;21556;55.782;37.528;2023-06-10T12:03:35;100459.41;;;21.00;31.33
35435;BME280;21556;55.782;37.528;2023-06-10T12:06:06;100447.50;;;21.22;31.70
35435;BME280;21556;55.782;37.528;2023-06-10T12:08:33;100458.00;;;20.70;32.39
35435;BME280;21556;55.782;37.528;2023-06-10T12:11:02;100453.94;;;20.36;32.27
35435;BME280;21556;55.782;37.528;2023-06-10T12:13:31;100456.16;;;20.78;32.17
35435;BME280;21556;55.782;37.528;2023-06-10T12:16:07;100457.03;;;20.78;32.47
35435;BME280;21556;55.782;37.528;2023-06-10T12:18:33;100456.50;;;20.46;32.08
35435;BME280;21556;55.782;37.528;2023-06-10T12:21:00;100464.25;;;20.70;32.58
35435;BME280;21556;55.782;37.528;2023-06-10T12:23:29;100471.31;;;20.73;32.51
35435;BME280;21556;55.782;37.528;2023-06-10T12:25:56;100463.16;;;20.85;32.77
35435;BME280;21556;55.782;37.528;2023-06-10T12:28:24;100481.41;;;20.43;35.53
35435;BME280;21556;55.782;37.528;2023-06-10T12:30:51;100475.63;;;20.03;36.90
35435;BME280;21556;55.782;37.528;2023-06-10T12:33:18;100484.06;;;20.44;36.70
35435;BME280;21556;55.782;37.528;2023-06-10T12:35:49;100473.66;;;20.23;37.09
35435;BME280;21556;55.782;37.528;2023-06-10T12:38:21;100470.25;;;20.09;37.44
35435;BME280;21556;55.782;37.528;2023-06-10T12:40:48;100475.13;;;20.49;36.78
35435;BME280;21556;55.782;37.528;2023-06-10T12:43:20;100470.19;;;20.90;34.75
35435;BME280;21556;55.782;37.528;2023-06-10T12:45:47;100469.78;;;20.53;35.16
35435;BME280;21556;55.782;37.528;2023-06-10T12:48:23;100469.81;;;20.52;35.41
35435;BME280;21556;55.782;37.528;2023-06-10T12:50:54;100463.72;;;20.36;34.82
35435;BME280;21556;55.782;37.528;2023-06-10T12:53:21;100465.41;;;20.43;34.56
35435;BME280;21556;55.782;37.528;2023-06-10T12:55:54;100465.44;;;20.41;34.00
35435;BME280;21556;55.782;37.528;2023-06-10T12:58:21;100470.25;;;20.04;34.91
35435;BME280;21556;55.782;37.528;2023-06-10T13:00:48;100462.91;;;20.29;34.37
35435;BME280;21556;55.782;37.528;2023-06-10T13:03:14;100463.88;;;20.24;35.17
35435;BME280;21556;55.782;37.528;2023-06-10T13:05:48;100477.66;;;19.75;36.21
35435;BME280;21556;55.782;37.528;2023-06-10T13:08:15;100468.50;;;20.05;35.57
35435;BME280;21556;55.782;37.528;2023-06-10T13:10:41;100473.06;;;19.93;35.24
35435;BME280;21556;55.782;37.528;2023-06-10T13:13:07;100476.81;;;19.69;34.87
35435;BME280;21556;55.782;37.528;2023-06-10T13:15:35;100477.75;;;19.62;35.19
35435;BME280;21556;55.782;37.528;2023-06-10T13:18:03;100478.75;;;19.44;35.43
35435;BME280;21556;55.782;37.528;2023-06-10T13:20:30;100479.19;;;20.02;35.01
35435;BME280;21556;55.782;37.528;2023-06-10T13:22:57;100483.72;;;19.92;36.01
35435;BME280;21556;55.782;37.528;2023-06-10T13:25:26;100483.16;;;20.46;34.15
35435;BME280;21556;55.782;37.528;2023-06-10T13:27:52;100483.72;;;19.93;35.77
35435;BME280;21556;55.782;37.528;2023-06-10T13:30:18;100487.72;;;20.33;36.33
35435;BME280;21556;55.782;37.528;2023-06-10T13:32:44;100476.13;;;20.38;36.18
35435;BME280;21556;55.782;37.528;2023-06-10T13:35:10;100482.88;;;19.87;38.26
35435;BME280;21556;55.782;37.528;2023-06-10T13:37:37;100494.22;;;20.04;39.02
35435;BME280;21556;55.782;37.528;2023-06-10T13:40:04;100488.38;;;19.64;41.63
35435;BME280;21556;55.782;37.528;2023-06-10T13:42:36;100489.94;;;19.89;38.32
35435;BME280;21556;55.782;37.528;2023-06-10T13:45:04;100492.97;;;19.43;40.11
35435;BME280;21556;55.782;37.528;2023-06-10T13:47:35;100499.91;;;19.64;39.78
35435;BME280;21556;55.782;37.528;2023-06-10T13:50:05;100492.69;;;19.83;38.51
35435;BME280;21556;55.782;37.528;2023-06-10T13:52:38;100506.38;;;19.20;39.99